RJCC/CTS METAR and TAF weather

Enter ICAO airport designator
Station Type Date Time Source
RJCC METAR 2020/07/11 00:00 UTC NOAA

RJCC 110000Z 34011KT 9999 FEW010 BKN014 21/18 Q1007


Station Type Date Time Source
RJCC Decoded METAR 2020/07/11 00:00 UTC NOAA

Chitose Ab, Japan (RJCC) 42-48N 141-40E 30M
Jul 10, 2020 - 08:00 PM EDT / 2020.07.11 0000 UTC
Wind: from the NNW (340 degrees) at 13 MPH (11 KT):0
Visibility: greater than 7 mile(s):0
Sky conditions: mostly cloudy
Temperature: 69 F (21 C)
Dew Point: 64 F (18 C)
Relative Humidity: 82%
Pressure (altimeter): 29.74 in. Hg (1007 hPa)
ob: RJCC 110000Z 34011KT 9999 FEW010 BKN014 21/18 Q1007
cycle: 0

Station Type Date Time Source
RJCC TAF 2020/07/10 19:18 UTC NOAA

TAF
AMD RJCC 101908Z 1019/1200 35009KT 9999 FEW006 BKN015
TEMPO 1019/1022 0700 FG VV001
TEMPO 1022/1100 3000 BR FEW003 BKN006
BECMG 1103/1105 19009KT
BECMG 1109/1112 35005KT
TEMPO 1112/1200 FEW003 BKN006

Example: see airport list